createdAt,value
2022-12-09T00:02:06.243Z,100172.44
2022-12-09T00:04:35.459Z,100186.31
2022-12-09T00:07:03.142Z,100172.53
2022-12-09T00:09:30.822Z,100183.06
2022-12-09T00:11:58.551Z,100184.91
2022-12-09T00:14:26.158Z,100178.78
2022-12-09T00:16:53.706Z,100178.78
2022-12-09T00:19:21.238Z,100173.56
2022-12-09T00:21:48.793Z,100166.66
2022-12-09T00:24:16.545Z,100178.78
2022-12-09T00:26:44.078Z,100172.72
2022-12-09T00:29:12.201Z,100173.56
2022-12-09T00:31:40.095Z,100170.03
2022-12-09T00:34:11.421Z,100176.16
2022-12-09T00:36:40.000Z,100177.09
2022-12-09T00:39:07.749Z,100173.59
2022-12-09T00:41:35.791Z,100164.84
2022-12-09T00:44:04.266Z,100171.81
2022-12-09T00:46:32.392Z,100177.94
2022-12-09T00:49:00.127Z,100168.34
2022-12-09T00:51:27.792Z,100177.03
2022-12-09T00:53:56.240Z,100168.19
2022-12-09T00:56:29.041Z,100170.88
2022-12-09T00:58:58.048Z,100180.41
2022-12-09T01:01:27.576Z,100174.28
2022-12-09T01:03:55.462Z,100183.91
2022-12-09T01:06:25.686Z,100163.78
2022-12-09T01:08:54.206Z,100169.13
2022-12-09T01:11:25.928Z,100169.13
2022-12-09T01:13:54.695Z,100166.41
2022-12-09T01:16:27.743Z,100169.03
2022-12-09T01:18:59.567Z,100161.38
2022-12-09T01:21:30.705Z,100162.28
2022-12-09T01:23:58.301Z,100148.41
2022-12-09T01:26:26.451Z,100149.31
2022-12-09T01:28:55.748Z,100149.28
2022-12-09T01:31:24.856Z,100150.16
2022-12-09T01:33:55.368Z,100151.00
2022-12-09T01:36:26.855Z,100137.88
2022-12-09T01:38:55.041Z,100130.94
2022-12-09T01:41:23.329Z,100134.44
2022-12-09T01:44:14.792Z,100128.34
2022-12-09T01:46:43.624Z,100123.78
2022-12-09T01:49:19.613Z,100122.03
2022-12-09T01:51:54.005Z,100133.31
2022-12-09T01:54:22.062Z,100116.84
2022-12-09T01:56:50.246Z,100103.94
2022-12-09T01:59:18.020Z,100111.78
2022-12-09T02:01:50.262Z,100102.25
2022-12-09T02:04:18.178Z,100094.34
2022-12-09T02:06:46.471Z,100090.91
2022-12-09T02:09:15.603Z,100073.53
2022-12-09T02:12:01.127Z,100077.88
2022-12-09T02:15:01.488Z,100078.75
2022-12-09T02:17:37.804Z,100077.78
2022-12-09T02:20:10.436Z,100082.22
2022-12-09T02:22:54.805Z,100073.50
2022-12-09T02:25:34.782Z,100069.16
2022-12-09T02:28:12.963Z,100065.66
2022-12-09T02:30:57.864Z,100054.31
2022-12-09T02:33:30.268Z,100056.09
2022-12-09T02:36:05.717Z,100045.56
2022-12-09T02:38:34.032Z,100040.31
2022-12-09T02:41:22.048Z,100043.81
2022-12-09T02:44:03.195Z,100030.84
2022-12-09T02:46:36.285Z,100027.41
2022-12-09T02:49:08.066Z,100023.03
2022-12-09T02:51:42.334Z,100014.38
2022-12-09T02:54:16.530Z,100016.91
2022-12-09T02:56:53.551Z,100015.13
2022-12-09T02:59:22.205Z,100018.72
2022-12-09T03:02:18.772Z,100010.94
2022-12-09T03:05:04.509Z,100002.22
2022-12-09T03:08:15.126Z,100001.34
2022-12-09T03:10:59.899Z,99986.56
2022-12-09T03:13:47.693Z,99993.50
2022-12-09T03:16:44.245Z,99986.47
2022-12-09T03:19:23.854Z,99976.94
2022-12-09T03:21:56.685Z,99976.06
2022-12-09T03:24:53.117Z,99966.47
2022-12-09T03:27:25.476Z,99967.38
2022-12-09T03:29:55.192Z,99963.03
2022-12-09T03:32:26.901Z,99943.03
2022-12-09T03:35:01.790Z,99950.88
2022-12-09T03:37:32.232Z,99939.56
2022-12-09T03:40:01.379Z,99947.38
2022-12-09T03:42:39.827Z,99938.66
2022-12-09T03:45:11.679Z,99946.50
2022-12-09T03:47:40.039Z,99942.16
2022-12-09T03:50:09.361Z,99943.91
2022-12-09T03:52:51.775Z,99932.59
2022-12-09T03:55:33.838Z,99916.03
2022-12-09T03:58:03.684Z,99909.06
2022-12-09T04:00:31.632Z,99903.84
2022-12-09T04:02:59.679Z,99888.19
2022-12-09T04:05:27.781Z,99895.13
2022-12-09T04:07:55.395Z,99883.84
2022-12-09T04:10:23.209Z,99891.69
2022-12-09T04:12:51.262Z,99895.16
2022-12-09T04:15:18.954Z,99884.72
2022-12-09T04:17:46.929Z,99889.91
2022-12-09T04:20:14.887Z,99889.94
2022-12-09T04:22:43.258Z,99884.69
2022-12-09T04:25:11.035Z,99872.50
2022-12-09T04:27:38.948Z,99876.00
2022-12-09T04:30:07.451Z,99867.28
2022-12-09T04:32:35.540Z,99878.63
2022-12-09T04:35:03.676Z,99882.09
2022-12-09T04:37:31.639Z,99865.56
2022-12-09T04:39:59.168Z,99878.63
2022-12-09T04:42:28.613Z,99858.59
2022-12-09T04:44:56.578Z,99862.94
2022-12-09T04:47:24.417Z,99863.81
2022-12-09T04:49:52.370Z,99858.63
2022-12-09T04:52:21.576Z,99852.50
2022-12-09T04:54:51.082Z,99865.56
2022-12-09T04:57:19.508Z,99853.38
2022-12-09T04:59:47.173Z,99849.03
2022-12-09T05:02:14.995Z,99840.31
2022-12-09T05:04:43.040Z,99849.91
2022-12-09T05:07:11.854Z,99848.16
2022-12-09T05:09:39.783Z,99856.88
2022-12-09T05:12:08.418Z,99848.16
2022-12-09T05:14:36.293Z,99845.56
2022-12-09T05:17:30.510Z,99845.53
2022-12-09T05:20:17.132Z,99842.06
2022-12-09T05:22:47.829Z,99839.44
2022-12-09T05:25:15.723Z,99828.16
2022-12-09T05:27:43.410Z,99832.50
2022-12-09T05:30:11.813Z,99839.47
2022-12-09T05:32:39.971Z,99837.69
2022-12-09T05:35:08.605Z,99834.22
2022-12-09T05:37:36.296Z,99822.06
2022-12-09T05:40:06.674Z,99819.44
2022-12-09T05:42:40.916Z,99810.72
2022-12-09T05:45:09.026Z,99815.06
2022-12-09T05:47:37.515Z,99806.38
2022-12-09T05:50:08.506Z,99810.75
2022-12-09T05:52:37.808Z,99806.41
2022-12-09T05:55:07.906Z,99807.25
2022-12-09T05:57:37.272Z,99799.44
2022-12-09T06:00:06.955Z,99791.63
2022-12-09T06:02:40.037Z,99807.28
2022-12-09T06:05:08.723Z,99802.91
2022-12-09T06:07:36.798Z,99798.53
2022-12-09T06:10:05.412Z,99798.56
2022-12-09T06:12:33.924Z,99790.69
2022-12-09T06:15:02.075Z,99783.75
2022-12-09T06:17:30.263Z,99781.16
2022-12-09T06:19:58.229Z,99787.25
2022-12-09T06:22:25.888Z,99778.53
2022-12-09T06:25:07.466Z,99775.06
2022-12-09T06:27:35.560Z,99762.91
2022-12-09T06:30:03.521Z,99759.41
2022-12-09T06:32:32.180Z,99741.09
2022-12-09T06:35:00.379Z,99734.16
2022-12-09T06:37:35.575Z,99725.44
2022-12-09T06:40:05.410Z,99733.31
2022-12-09T06:42:33.107Z,99741.97
2022-12-09T06:45:00.751Z,99736.78
2022-12-09T06:47:28.413Z,99735.94
2022-12-09T06:50:04.363Z,99738.56
2022-12-09T06:52:34.349Z,99727.25
2022-12-09T06:55:53.039Z,99739.41
2022-12-09T06:59:03.406Z,99735.00
2022-12-09T07:02:19.791Z,99728.94
2022-12-09T07:05:15.797Z,99737.63
2022-12-09T07:07:52.333Z,99726.31
2022-12-09T07:10:21.039Z,99741.97
2022-12-09T07:12:49.446Z,99747.19
2022-12-09T07:15:17.128Z,99740.31
2022-12-09T07:17:44.893Z,99749.81
2022-12-09T07:20:13.368Z,99750.69
2022-12-09T07:22:41.376Z,99751.53
2022-12-09T07:25:09.904Z,99736.75
2022-12-09T07:27:38.128Z,99741.91
2022-12-09T07:30:06.512Z,99737.63
2022-12-09T07:32:34.519Z,99741.13
2022-12-09T07:35:02.348Z,99738.50
2022-12-09T07:37:30.457Z,99741.91
2022-12-09T07:39:58.347Z,99737.56
2022-12-09T07:42:26.298Z,99741.09
2022-12-09T07:44:55.286Z,99722.88
2022-12-09T07:47:23.166Z,99721.03
2022-12-09T07:49:51.403Z,99708.03
2022-12-09T07:52:19.804Z,99718.41
2022-12-09T07:54:47.335Z,99712.41
2022-12-09T07:57:15.025Z,99708.88
2022-12-09T07:59:43.404Z,99692.34
2022-12-09T08:02:11.288Z,99699.34
2022-12-09T08:04:39.509Z,99681.06
2022-12-09T08:07:07.407Z,99676.59
2022-12-09T08:09:35.633Z,99661.84
2022-12-09T08:12:03.662Z,99674.06
2022-12-09T08:14:31.684Z,99667.94
2022-12-09T08:16:59.537Z,99668.00
2022-12-09T08:19:27.304Z,99671.47
2022-12-09T08:21:55.521Z,99673.25
2022-12-09T08:24:23.520Z,99686.28
2022-12-09T08:26:51.467Z,99682.03
2022-12-09T08:29:20.062Z,99678.56
2022-12-09T08:31:48.442Z,99697.69
2022-12-09T08:34:16.920Z,99692.47
2022-12-09T08:36:45.160Z,99695.09
2022-12-09T08:39:14.000Z,99705.50
2022-12-09T08:41:43.851Z,99705.53
2022-12-09T08:44:42.322Z,99700.31
2022-12-09T08:47:13.918Z,99672.47
2022-12-09T08:49:41.951Z,99659.41
2022-12-09T08:52:10.135Z,99654.19
2022-12-09T08:54:38.158Z,99661.97
2022-12-09T08:57:05.855Z,99643.69
2022-12-09T08:59:33.499Z,99647.16
2022-12-09T09:02:01.318Z,99648.84
2022-12-09T09:04:31.901Z,99641.84
2022-12-09T09:07:00.488Z,99641.84
2022-12-09T09:09:28.411Z,99631.25
2022-12-09T09:11:56.141Z,99613.03
2022-12-09T09:14:24.316Z,99616.56
2022-12-09T09:16:52.109Z,99609.66
2022-12-09T09:19:23.421Z,99623.56
2022-12-09T09:21:51.879Z,99614.66
2022-12-09T09:24:23.060Z,99585.06
2022-12-09T09:26:52.586Z,99582.38
2022-12-09T09:29:22.840Z,99572.91
2022-12-09T09:31:54.546Z,99600.75
2022-12-09T09:34:23.037Z,99601.66
2022-12-09T09:36:51.533Z,99596.34
2022-12-09T09:39:20.132Z,99595.63
2022-12-09T09:41:51.810Z,99597.34
2022-12-09T09:44:19.685Z,99601.72
2022-12-09T09:46:49.996Z,99602.59
2022-12-09T09:49:46.235Z,99600.84
2022-12-09T09:52:19.072Z,99600.78
2022-12-09T09:54:47.304Z,99601.63
2022-12-09T09:57:17.534Z,99591.13
2022-12-09T10:00:09.349Z,99594.69
2022-12-09T10:02:48.369Z,99570.34
2022-12-09T10:05:32.004Z,99570.28
2022-12-09T10:08:29.024Z,99562.69
2022-12-09T10:11:06.946Z,99555.72
2022-12-09T10:13:45.072Z,99563.53
2022-12-09T10:16:25.015Z,99570.56
2022-12-09T10:19:09.645Z,99536.63
2022-12-09T10:21:42.471Z,99538.28
2022-12-09T10:24:40.747Z,99527.00
2022-12-09T10:27:16.648Z,99518.97
2022-12-09T10:29:56.800Z,99532.13
2022-12-09T10:32:30.968Z,99520.94
2022-12-09T10:35:00.408Z,99524.44
2022-12-09T10:37:34.024Z,99520.91
2022-12-09T10:40:07.901Z,99509.47
2022-12-09T10:43:08.056Z,99479.84
2022-12-09T10:46:16.748Z,99478.91
2022-12-09T10:48:40.417Z,99460.59
2022-12-09T10:51:14.049Z,99433.47
2022-12-09T10:53:54.977Z,99435.47
2022-12-09T10:56:29.890Z,99432.13
2022-12-09T10:59:27.968Z,99426.44
2022-12-09T11:02:20.659Z,99428.19
2022-12-09T11:04:49.634Z,99437.94
2022-12-09T11:07:23.889Z,99442.09
2022-12-09T11:09:54.463Z,99446.34
2022-12-09T11:12:30.990Z,99447.09
2022-12-09T11:15:26.638Z,99442.97
2022-12-09T11:18:02.561Z,99441.44
2022-12-09T11:20:34.886Z,99437.78
2022-12-09T11:23:17.149Z,99439.72
2022-12-09T11:26:06.158Z,99392.69
2022-12-09T11:29:04.747Z,99375.47
2022-12-09T11:31:41.135Z,99356.41
2022-12-09T11:34:25.172Z,99337.94
2022-12-09T11:36:56.621Z,99336.88
2022-12-09T11:39:31.115Z,99363.38
2022-12-09T11:42:20.859Z,99371.13
2022-12-09T11:45:01.194Z,99373.66
2022-12-09T11:47:50.413Z,99367.50
2022-12-09T11:50:24.253Z,99362.16
2022-12-09T11:53:11.260Z,99362.47
2022-12-09T11:55:46.778Z,99353.84
2022-12-09T11:58:16.383Z,99361.56
2022-12-09T12:01:06.444Z,99324.97
2022-12-09T12:04:10.582Z,99321.53
2022-12-09T12:07:05.500Z,99320.69
2022-12-09T12:09:54.612Z,99323.34
2022-12-09T12:12:43.252Z,99308.97
2022-12-09T12:15:17.929Z,99314.75
2022-12-09T12:21:30.581Z,99304.78
2022-12-09T12:24:22.683Z,99330.16
2022-12-09T12:26:55.790Z,99353.81
2022-12-09T12:29:39.347Z,99366.06
2022-12-09T12:32:24.851Z,99388.00
2022-12-09T12:34:58.010Z,99373.38
2022-12-09T12:37:34.736Z,99346.50
2022-12-09T12:40:27.365Z,99323.84
2022-12-09T12:43:47.483Z,99306.56
2022-12-09T12:46:34.239Z,99300.47
2022-12-09T12:49:16.576Z,99296.75
2022-12-09T12:52:03.240Z,99309.75
2022-12-09T12:54:58.279Z,99304.44
2022-12-09T12:57:47.323Z,99301.53
2022-12-09T13:00:22.233Z,99299.00
2022-12-09T13:03:18.590Z,99305.69
2022-12-09T13:05:52.787Z,99298.50
2022-12-09T13:08:46.514Z,99305.56
2022-12-09T13:11:20.029Z,99301.09
2022-12-09T13:13:53.915Z,99292.19
2022-12-09T13:16:28.181Z,99284.19
2022-12-09T13:19:06.465Z,99263.72
2022-12-09T13:21:34.956Z,99275.13
2022-12-09T13:24:26.305Z,99275.00
2022-12-09T13:27:06.205Z,99266.97
2022-12-09T13:29:58.075Z,99241.75
2022-12-09T13:32:28.450Z,99241.50
2022-12-09T13:35:06.750Z,99245.88
2022-12-09T13:37:55.141Z,99260.06
2022-12-09T13:40:28.456Z,99273.13
2022-12-09T13:43:20.409Z,99279.22
2022-12-09T13:45:54.777Z,99295.81
2022-12-09T13:48:22.307Z,99292.44
2022-12-09T13:50:49.804Z,99271.75
2022-12-09T13:53:20.279Z,99273.25
2022-12-09T13:55:59.299Z,99270.50
2022-12-09T13:58:33.623Z,99252.50
2022-12-09T14:01:13.539Z,99256.63
2022-12-09T14:03:56.373Z,99253.16
2022-12-09T14:06:30.917Z,99256.63
2022-12-09T14:09:39.326Z,99241.53
2022-12-09T14:12:14.210Z,99258.00
2022-12-09T14:14:51.609Z,99286.63
2022-12-09T14:18:41.133Z,99292.84
2022-12-09T14:21:20.746Z,99284.13
2022-12-09T14:25:03.123Z,99274.75
2022-12-09T14:27:32.199Z,99279.06
2022-12-09T14:35:04.769Z,99284.91
2022-12-09T14:46:25.064Z,99281.53
2022-12-09T14:49:25.141Z,99273.09
2022-12-09T14:56:50.581Z,99259.72
2022-12-09T14:59:34.144Z,99251.16
2022-12-09T15:03:08.733Z,99255.59
2022-12-09T15:12:46.501Z,99244.38
2022-12-09T15:15:41.758Z,99249.03
2022-12-09T15:18:24.497Z,99252.25
2022-12-09T15:20:55.883Z,99232.94
2022-12-09T15:23:47.052Z,99241.50
2022-12-09T15:26:25.882Z,99251.09
2022-12-09T15:28:56.222Z,99243.25
2022-12-09T15:31:27.063Z,99243.66
2022-12-09T15:34:08.039Z,99240.09
2022-12-09T15:36:40.300Z,99243.44
2022-12-09T15:39:53.160Z,99234.78
2022-12-09T15:42:27.333Z,99219.63
2022-12-09T15:45:11.860Z,99224.97
2022-12-09T15:47:43.191Z,99214.69
2022-12-09T15:50:22.569Z,99218.94
2022-12-09T15:53:02.893Z,99223.84
2022-12-09T15:55:38.352Z,99234.72
2022-12-09T15:58:06.950Z,99238.78
2022-12-09T16:00:42.383Z,99237.94
2022-12-09T16:03:09.872Z,99245.50
2022-12-09T16:05:41.790Z,99251.56
2022-12-09T16:08:10.407Z,99240.31
2022-12-09T16:10:56.624Z,99238.81
2022-12-09T16:13:27.901Z,99234.31
2022-12-09T16:15:58.372Z,99226.41
2022-12-09T16:18:46.905Z,99228.09
2022-12-09T16:21:40.598Z,99225.66
2022-12-09T16:24:13.059Z,99217.69
2022-12-09T16:26:46.694Z,99216.81
2022-12-09T16:29:28.085Z,99198.44
2022-12-09T16:32:20.285Z,99210.22
2022-12-09T16:34:52.111Z,99205.00
2022-12-09T16:37:32.501Z,99194.41
2022-12-09T16:40:03.021Z,99197.91
2022-12-09T16:42:36.583Z,99207.41
2022-12-09T16:45:31.539Z,99203.16
2022-12-09T16:47:59.806Z,99215.31
2022-12-09T16:50:33.144Z,99209.47
2022-12-09T16:53:16.387Z,99203.09
2022-12-09T16:56:01.659Z,99204.06
2022-12-09T16:58:31.040Z,99217.97
2022-12-09T17:01:00.247Z,99216.16
2022-12-09T17:03:40.182Z,99219.47
2022-12-09T17:06:10.789Z,99205.72
2022-12-09T17:08:38.393Z,99201.66
2022-12-09T17:11:06.214Z,99206.09
2022-12-09T17:13:34.063Z,99190.59
2022-12-09T17:16:01.927Z,99181.13
2022-12-09T17:18:29.856Z,99196.06
2022-12-09T17:21:13.668Z,99205.00
2022-12-09T17:23:46.758Z,99218.75
2022-12-09T17:26:16.880Z,99220.47
2022-12-09T17:28:45.064Z,99217.00
2022-12-09T17:31:15.836Z,99224.72
2022-12-09T17:33:43.972Z,99222.06
2022-12-09T17:36:13.677Z,99214.47
2022-12-09T17:38:41.434Z,99219.53
2022-12-09T17:41:13.359Z,99199.41
2022-12-09T17:43:40.867Z,99201.06
2022-12-09T17:46:10.461Z,99198.72
2022-12-09T17:48:40.138Z,99200.44
2022-12-09T17:51:10.395Z,99195.94
2022-12-09T17:53:40.148Z,99209.00
2022-12-09T17:56:26.518Z,99212.47
2022-12-09T17:59:29.574Z,99206.97
2022-12-09T18:01:57.103Z,99212.16
2022-12-09T18:04:24.676Z,99198.00
2022-12-09T18:06:52.180Z,99215.50
2022-12-09T18:09:20.037Z,99206.91
2022-12-09T18:11:48.836Z,99219.81
2022-12-09T18:14:16.560Z,99213.66
2022-12-09T18:16:46.546Z,99212.97
2022-12-09T18:19:16.642Z,99223.59
2022-12-09T18:21:45.166Z,99227.13
2022-12-09T18:24:13.347Z,99235.84
2022-12-09T18:26:42.284Z,99235.09
2022-12-09T18:29:11.805Z,99232.22
2022-12-09T18:31:39.807Z,99239.28
2022-12-09T18:34:07.695Z,99241.59
2022-12-09T18:36:35.652Z,99244.25
2022-12-09T18:39:04.439Z,99238.97
2022-12-09T18:41:31.992Z,99233.78
2022-12-09T18:44:03.136Z,99226.78
2022-12-09T18:46:36.593Z,99239.06
2022-12-09T18:49:11.045Z,99241.53
2022-12-09T18:51:39.851Z,99251.31
2022-12-09T18:54:08.269Z,99245.25
2022-12-09T18:56:37.411Z,99257.44
2022-12-09T18:59:06.881Z,99238.22
2022-12-09T19:01:39.919Z,99241.59
2022-12-09T19:04:23.037Z,99248.63
2022-12-09T19:06:52.538Z,99246.13
2022-12-09T19:09:25.596Z,99255.72
2022-12-09T19:11:53.427Z,99258.03
2022-12-09T19:14:23.099Z,99251.81
2022-12-09T19:16:52.115Z,99259.84
2022-12-09T19:19:26.122Z,99255.44
2022-12-09T19:21:54.811Z,99261.78
2022-12-09T19:24:25.811Z,99263.22
2022-12-09T19:26:55.063Z,99257.41
2022-12-09T19:29:24.793Z,99267.47
2022-12-09T19:31:53.870Z,99256.09
2022-12-09T19:34:24.679Z,99248.31
2022-12-09T19:36:54.469Z,99239.19
2022-12-09T19:39:24.294Z,99266.22
2022-12-09T19:41:51.985Z,99268.72
2022-12-09T19:44:44.165Z,99258.22
2022-12-09T19:47:08.507Z,99268.53
2022-12-09T19:49:36.387Z,99266.09
2022-12-09T19:52:04.091Z,99268.66
2022-12-09T19:54:31.836Z,99264.19
2022-12-09T19:56:59.579Z,99259.84
2022-12-09T19:59:27.891Z,99261.78
2022-12-09T20:01:55.813Z,99270.25
2022-12-09T20:04:48.032Z,99272.88
2022-12-09T20:07:13.230Z,99265.97
2022-12-09T20:09:40.833Z,99276.59
2022-12-09T20:12:08.555Z,99278.34
2022-12-09T20:14:36.246Z,99273.72
2022-12-09T20:17:03.843Z,99285.09
2022-12-09T20:19:31.615Z,99286.81
2022-12-09T20:21:59.257Z,99301.44
2022-12-09T20:24:26.976Z,99285.84
2022-12-09T20:26:56.117Z,99280.88
2022-12-09T20:29:23.801Z,99296.47
2022-12-09T20:31:51.687Z,99274.63
2022-12-09T20:34:19.401Z,99291.03
2022-12-09T20:36:47.313Z,99278.88
2022-12-09T20:39:19.144Z,99287.88
2022-12-09T20:41:48.435Z,99275.63
2022-12-09T20:44:17.335Z,99262.84
2022-12-09T20:46:47.834Z,99266.19
2022-12-09T20:49:15.577Z,99272.34
2022-12-09T20:51:48.704Z,99268.88
2022-12-09T20:54:16.489Z,99268.91
2022-12-09T20:56:44.206Z,99254.34
2022-12-09T20:59:13.752Z,99263.00
2022-12-09T21:01:42.275Z,99260.47
2022-12-09T21:04:09.950Z,99264.00
2022-12-09T21:06:40.396Z,99266.69
2022-12-09T21:09:14.977Z,99268.25
2022-12-09T21:11:42.592Z,99264.50
2022-12-09T21:14:11.059Z,99269.72
2022-12-09T21:16:41.425Z,99267.25
2022-12-09T21:19:12.580Z,99265.50
2022-12-09T21:21:42.182Z,99271.28
2022-12-09T21:24:11.845Z,99266.91
2022-12-09T21:26:40.947Z,99261.00
2022-12-09T21:29:11.075Z,99273.91
2022-12-09T21:31:41.181Z,99266.06
2022-12-09T21:34:10.702Z,99271.44
2022-12-09T21:36:41.562Z,99260.31
2022-12-09T21:39:12.244Z,99259.53
2022-12-09T21:41:40.064Z,99253.38
2022-12-09T21:44:07.919Z,99259.44
2022-12-09T21:46:37.202Z,99269.69
2022-12-09T21:49:06.582Z,99269.69
2022-12-09T21:51:35.203Z,99261.00
2022-12-09T21:54:03.273Z,99261.09
2022-12-09T21:56:33.660Z,99260.88
2022-12-09T21:59:01.786Z,99263.44
2022-12-09T22:01:42.048Z,99273.28
2022-12-09T22:04:16.409Z,99272.63
2022-12-09T22:06:49.529Z,99269.97
2022-12-09T22:09:18.795Z,99265.56
2022-12-09T22:11:46.823Z,99263.03
2022-12-09T22:14:14.703Z,99277.69
2022-12-09T22:16:44.599Z,99271.50
2022-12-09T22:19:17.905Z,99263.84
2022-12-09T22:21:46.451Z,99275.03
2022-12-09T22:24:15.195Z,99269.78
2022-12-09T22:26:46.040Z,99273.44
2022-12-09T22:29:16.140Z,99281.31
2022-12-09T22:31:44.452Z,99280.38
2022-12-09T22:34:18.047Z,99287.22
2022-12-09T22:36:47.528Z,99277.72
2022-12-09T22:39:18.322Z,99281.97
2022-12-09T22:41:46.255Z,99275.13
2022-12-09T22:44:18.716Z,99289.03
2022-12-09T22:46:47.579Z,99291.69
2022-12-09T22:49:15.712Z,99285.50
2022-12-09T22:51:45.263Z,99282.88
2022-12-09T22:54:13.799Z,99281.13
2022-12-09T22:56:42.894Z,99281.31
2022-12-09T22:59:11.325Z,99292.53
2022-12-09T23:01:39.197Z,99293.50
2022-12-09T23:04:08.360Z,99295.31
2022-12-09T23:06:38.718Z,99299.56
2022-12-09T23:09:08.404Z,99282.09
2022-12-09T23:11:37.079Z,99275.09
2022-12-09T23:14:04.667Z,99270.69
2022-12-09T23:16:32.787Z,99269.03
2022-12-09T23:19:01.852Z,99259.59
2022-12-09T23:21:32.677Z,99269.13
2022-12-09T23:24:03.782Z,99264.63
2022-12-09T23:26:34.001Z,99272.50
2022-12-09T23:29:02.454Z,99275.16
2022-12-09T23:31:32.801Z,99282.06
2022-12-09T23:34:02.417Z,99281.28
2022-12-09T23:36:45.390Z,99283.00
2022-12-09T23:39:16.059Z,99282.34
2022-12-09T23:41:45.206Z,99297.91
2022-12-09T23:44:16.064Z,99290.28
2022-12-09T23:46:44.191Z,99297.25
2022-12-09T23:49:12.011Z,99301.56
2022-12-09T23:51:43.998Z,99299.78
2022-12-09T23:54:14.788Z,99280.66
2022-12-09T23:56:46.385Z,99271.81
2022-12-09T23:59:14.633Z,99283.03
